createdAt,value
2017-06-16T00:01:38.253Z,10.13
2017-06-16T00:04:12.614Z,10.00
2017-06-16T00:06:46.757Z,9.97
2017-06-16T00:09:20.929Z,9.23
2017-06-16T00:11:55.119Z,10.40
2017-06-16T00:14:29.188Z,9.73
2017-06-16T00:17:03.393Z,10.00
2017-06-16T00:19:37.485Z,10.43
2017-06-16T00:22:11.584Z,10.37
2017-06-16T00:24:45.660Z,10.50
2017-06-16T00:27:19.905Z,9.87
2017-06-16T00:29:54.009Z,10.57
2017-06-16T00:32:28.056Z,10.80
2017-06-16T00:35:02.206Z,11.27
2017-06-16T00:37:36.282Z,9.73
2017-06-16T00:40:10.308Z,11.00
2017-06-16T00:42:44.356Z,11.20
2017-06-16T00:45:18.590Z,10.80
2017-06-16T00:47:52.917Z,11.53
2017-06-16T00:50:27.136Z,12.60
2017-06-16T00:53:01.186Z,11.10
2017-06-16T00:55:35.292Z,12.00
2017-06-16T00:58:09.638Z,11.73
2017-06-16T01:00:43.872Z,12.27
2017-06-16T01:03:18.123Z,10.80
2017-06-16T01:05:52.366Z,12.20
2017-06-16T01:08:26.528Z,13.60
2017-06-16T01:11:00.761Z,11.27
2017-06-16T01:13:34.916Z,11.60
2017-06-16T01:16:08.954Z,10.93
2017-06-16T01:18:43.016Z,11.10
2017-06-16T01:21:17.175Z,10.57
2017-06-16T01:23:51.336Z,12.43
2017-06-16T01:26:25.416Z,12.23
2017-06-16T01:28:59.533Z,12.20
2017-06-16T01:31:33.645Z,13.13
2017-06-16T01:34:07.812Z,12.77
2017-06-16T01:36:42.005Z,12.63
2017-06-16T01:39:16.195Z,11.17
2017-06-16T01:41:50.340Z,12.53
2017-06-16T01:44:24.410Z,12.87
2017-06-16T01:46:58.476Z,11.90
2017-06-16T01:49:32.704Z,11.00
2017-06-16T01:52:06.896Z,12.83
2017-06-16T01:54:40.936Z,11.83
2017-06-16T01:57:21.872Z,12.97
2017-06-16T01:59:56.053Z,13.67
2017-06-16T02:02:30.159Z,11.83
2017-06-16T02:05:04.433Z,12.33
2017-06-16T02:07:38.652Z,13.10
2017-06-16T02:10:12.905Z,12.63
2017-06-16T02:12:47.078Z,13.97
2017-06-16T02:15:21.313Z,11.93
2017-06-16T02:17:56.576Z,13.80
2017-06-16T02:20:30.779Z,10.97
2017-06-16T02:23:05.178Z,13.40
2017-06-16T02:25:39.345Z,12.07
2017-06-16T02:28:13.510Z,13.70
2017-06-16T02:30:47.674Z,12.37
2017-06-16T02:33:22.660Z,12.57
2017-06-16T02:35:56.841Z,11.90
2017-06-16T02:38:31.208Z,12.23
2017-06-16T02:41:05.279Z,12.83
2017-06-16T02:43:39.425Z,12.20
2017-06-16T02:46:13.629Z,12.80
2017-06-16T02:48:47.696Z,12.20
2017-06-16T02:51:21.793Z,11.80
2017-06-16T02:53:56.165Z,12.10
2017-06-16T02:56:30.228Z,12.20
2017-06-16T02:59:04.530Z,12.67
2017-06-16T03:01:38.570Z,11.80
2017-06-16T03:04:12.713Z,11.23
2017-06-16T03:06:46.966Z,12.97
2017-06-16T03:09:24.130Z,13.40
2017-06-16T03:11:58.358Z,14.17
2017-06-16T03:14:32.406Z,14.37
2017-06-16T03:17:06.484Z,16.57
2017-06-16T03:19:40.513Z,20.00
2017-06-16T03:22:14.842Z,17.37
2017-06-16T03:24:55.087Z,17.37
2017-06-16T03:27:29.166Z,16.47
2017-06-16T03:30:03.360Z,16.13
2017-06-16T03:32:37.453Z,15.97
2017-06-16T03:35:11.656Z,14.40
2017-06-16T03:37:45.856Z,14.50
2017-06-16T03:40:19.952Z,13.40
2017-06-16T03:42:54.198Z,13.20
2017-06-16T03:45:28.472Z,13.43
2017-06-16T03:48:02.644Z,12.67
2017-06-16T03:50:36.681Z,11.43
2017-06-16T03:53:10.669Z,11.33
2017-06-16T03:55:44.778Z,11.23
2017-06-16T03:58:18.989Z,10.70
2017-06-16T04:00:54.730Z,14.53
2017-06-16T04:03:28.908Z,10.93
2017-06-16T04:06:03.057Z,11.43
2017-06-16T04:08:37.350Z,11.43
2017-06-16T04:11:11.530Z,11.40
2017-06-16T04:13:45.565Z,12.43
2017-06-16T04:16:19.617Z,11.03
2017-06-16T04:18:53.820Z,12.33
2017-06-16T04:21:28.098Z,12.27
2017-06-16T04:24:02.293Z,13.37
2017-06-16T04:26:36.371Z,10.23
2017-06-16T04:29:11.084Z,10.77
2017-06-16T04:31:45.196Z,10.30
2017-06-16T04:34:19.386Z,10.27
2017-06-16T04:36:53.569Z,9.60
2017-06-16T04:39:27.828Z,10.50
2017-06-16T04:42:02.029Z,9.07
2017-06-16T04:44:36.099Z,10.00
2017-06-16T04:47:10.440Z,12.47
2017-06-16T04:49:44.536Z,12.33
2017-06-16T04:52:18.705Z,8.20
2017-06-16T04:54:52.864Z,7.47
2017-06-16T04:57:26.928Z,7.60
2017-06-16T05:00:01.115Z,8.50
2017-06-16T05:02:35.142Z,7.70
2017-06-16T05:05:09.364Z,8.47
2017-06-16T05:07:43.509Z,9.23
2017-06-16T05:10:17.920Z,9.50
2017-06-16T05:12:52.088Z,8.80
2017-06-16T05:15:26.249Z,9.50
2017-06-16T05:18:00.429Z,9.43
2017-06-16T05:20:34.500Z,9.97
2017-06-16T05:23:14.816Z,9.93
2017-06-16T05:25:49.094Z,10.03
2017-06-16T05:28:23.188Z,10.07
2017-06-16T05:30:57.437Z,10.80
2017-06-16T05:33:31.577Z,10.23
2017-06-16T05:36:05.779Z,10.50
2017-06-16T05:38:39.868Z,8.77
2017-06-16T05:41:14.223Z,9.93
2017-06-16T05:43:48.475Z,11.40
2017-06-16T05:46:22.804Z,11.23
2017-06-16T05:48:57.350Z,9.90
2017-06-16T05:51:31.525Z,12.70
2017-06-16T05:54:05.672Z,8.83
2017-06-16T05:56:39.717Z,9.63
2017-06-16T05:59:13.999Z,9.67
2017-06-16T06:01:48.215Z,10.27
2017-06-16T06:04:22.337Z,12.30
2017-06-16T06:06:56.569Z,9.97
2017-06-16T06:09:30.620Z,11.10
2017-06-16T06:12:04.878Z,12.97
2017-06-16T06:14:39.075Z,11.73
2017-06-16T06:17:13.277Z,13.03
2017-06-16T06:19:47.377Z,13.43
2017-06-16T06:22:21.420Z,12.23
2017-06-16T06:24:55.648Z,14.90
2017-06-16T06:27:29.721Z,9.80
2017-06-16T06:30:03.888Z,11.70
2017-06-16T06:32:39.805Z,8.70
2017-06-16T06:35:14.150Z,9.27
2017-06-16T06:37:48.388Z,10.70
2017-06-16T06:40:22.529Z,9.93
2017-06-16T06:42:56.783Z,10.73
2017-06-16T06:45:31.076Z,12.27
2017-06-16T06:48:05.237Z,11.97
2017-06-16T06:50:39.525Z,11.67
2017-06-16T06:53:13.748Z,11.87
2017-06-16T06:55:47.766Z,12.17
2017-06-16T06:58:22.023Z,12.23
2017-06-16T07:00:56.116Z,12.13
2017-06-16T07:03:30.310Z,9.87
2017-06-16T07:06:04.521Z,10.50
2017-06-16T07:08:38.797Z,8.73
2017-06-16T07:11:12.902Z,9.83
2017-06-16T07:13:47.089Z,9.13
2017-06-16T07:16:21.277Z,8.60
2017-06-16T07:18:55.537Z,9.07
2017-06-16T07:21:29.828Z,8.30
2017-06-16T07:24:04.091Z,8.60
2017-06-16T07:26:38.386Z,8.57
2017-06-16T07:29:12.606Z,8.60
2017-06-16T07:31:46.786Z,8.97
2017-06-16T07:34:20.977Z,8.53
2017-06-16T07:36:55.194Z,8.00
2017-06-16T07:39:29.245Z,8.57
2017-06-16T07:42:03.501Z,9.00
2017-06-16T07:44:37.616Z,9.03
2017-06-16T07:47:11.699Z,9.23
2017-06-16T07:49:45.737Z,9.10
2017-06-16T07:52:20.001Z,8.63
2017-06-16T07:54:54.467Z,10.57
2017-06-16T07:57:28.553Z,9.30
2017-06-16T08:00:02.800Z,9.87
2017-06-16T08:02:36.999Z,8.73
2017-06-16T08:05:11.278Z,10.53
2017-06-16T08:07:45.405Z,9.00
2017-06-16T08:10:19.640Z,10.60
2017-06-16T08:12:53.704Z,10.27
2017-06-16T08:15:28.064Z,10.13
2017-06-16T08:18:02.121Z,10.77
2017-06-16T08:20:36.430Z,9.40
2017-06-16T08:23:10.600Z,9.17
2017-06-16T08:25:44.997Z,8.77
2017-06-16T08:28:19.316Z,8.43
2017-06-16T08:30:53.500Z,8.63
2017-06-16T08:33:27.756Z,9.33
2017-06-16T08:36:01.918Z,8.50
2017-06-16T08:38:36.098Z,9.67
2017-06-16T08:41:10.520Z,9.50
2017-06-16T08:43:44.793Z,8.67
2017-06-16T08:46:18.911Z,7.93
2017-06-16T08:48:53.044Z,7.50
2017-06-16T08:51:27.242Z,7.20
2017-06-16T08:54:01.421Z,7.90
2017-06-16T08:56:35.661Z,7.33
2017-06-16T08:59:10.042Z,7.00
2017-06-16T09:01:44.173Z,6.10
2017-06-16T09:04:18.477Z,5.50
2017-06-16T09:06:52.605Z,5.30
2017-06-16T09:09:26.813Z,6.27
2017-06-16T09:12:00.945Z,6.40
2017-06-16T09:14:35.180Z,6.40
2017-06-16T09:17:09.316Z,6.57
2017-06-16T09:19:43.390Z,6.27
2017-06-16T09:22:17.626Z,6.27
2017-06-16T09:24:51.671Z,6.00
2017-06-16T09:27:25.907Z,6.77
2017-06-16T09:30:00.045Z,6.73
2017-06-16T09:32:34.104Z,6.90
2017-06-16T09:35:08.207Z,8.10
2017-06-16T09:37:42.269Z,7.83
2017-06-16T09:40:16.511Z,8.77
2017-06-16T09:42:50.631Z,8.63
2017-06-16T09:45:24.830Z,8.07
2017-06-16T09:47:59.017Z,8.30
2017-06-16T09:50:33.074Z,8.37
2017-06-16T09:53:07.229Z,8.60
2017-06-16T09:55:41.445Z,10.87
2017-06-16T09:58:15.607Z,9.00
2017-06-16T10:00:50.198Z,8.50
2017-06-16T10:03:24.497Z,8.70
2017-06-16T10:05:58.701Z,8.87
2017-06-16T10:08:33.010Z,9.40
2017-06-16T10:11:07.091Z,8.50
2017-06-16T10:13:41.225Z,8.73
2017-06-16T10:16:15.392Z,9.10
2017-06-16T10:18:49.652Z,8.67
2017-06-16T10:21:23.861Z,8.57
2017-06-16T10:23:57.933Z,8.57
2017-06-16T10:26:32.063Z,8.90
2017-06-16T10:29:06.486Z,8.63
2017-06-16T10:31:40.707Z,8.40
2017-06-16T10:34:14.970Z,8.73
2017-06-16T10:36:49.294Z,7.50
2017-06-16T10:39:23.592Z,7.07
2017-06-16T10:41:57.743Z,7.27
2017-06-16T10:44:31.948Z,7.23
2017-06-16T10:47:06.097Z,7.60
2017-06-16T10:49:40.207Z,6.93
2017-06-16T10:52:14.234Z,7.03
2017-06-16T10:54:48.740Z,6.70
2017-06-16T10:57:22.873Z,8.00
2017-06-16T10:59:57.288Z,7.70
2017-06-16T11:02:31.561Z,7.50
2017-06-16T11:05:05.685Z,7.93
2017-06-16T11:07:39.843Z,7.93
2017-06-16T11:10:14.388Z,7.10
2017-06-16T11:12:48.766Z,6.40
2017-06-16T11:15:23.061Z,6.20
2017-06-16T11:17:57.366Z,6.80
2017-06-16T11:20:31.759Z,6.63
2017-06-16T11:23:06.001Z,6.30
2017-06-16T11:25:40.248Z,5.80
2017-06-16T11:28:14.711Z,7.47
2017-06-16T11:30:49.009Z,6.07
2017-06-16T11:33:23.274Z,6.67
2017-06-16T11:35:57.930Z,6.57
2017-06-16T11:38:32.061Z,6.93
2017-06-16T11:41:06.463Z,7.43
2017-06-16T11:43:40.772Z,6.47
2017-06-16T11:46:15.263Z,6.77
2017-06-16T11:48:49.493Z,6.50
2017-06-16T11:51:23.672Z,7.23
2017-06-16T11:53:57.937Z,6.50
2017-06-16T11:56:32.341Z,6.50
2017-06-16T11:59:06.804Z,7.43
2017-06-16T12:01:40.944Z,6.60
2017-06-16T12:04:15.201Z,7.07
2017-06-16T12:06:49.540Z,6.73
2017-06-16T12:09:23.950Z,6.60
2017-06-16T12:11:58.221Z,6.67
2017-06-16T12:14:32.578Z,6.70
2017-06-16T12:17:06.708Z,7.30
2017-06-16T12:19:41.129Z,6.17
2017-06-16T12:22:15.283Z,6.40
2017-06-16T12:24:49.436Z,6.60
2017-06-16T12:27:23.714Z,6.20
2017-06-16T12:29:58.009Z,7.03
2017-06-16T12:32:32.142Z,6.70
2017-06-16T12:35:06.449Z,7.30
2017-06-16T12:37:40.894Z,6.60
2017-06-16T12:40:15.337Z,10.23
2017-06-16T12:42:49.458Z,7.80
2017-06-16T12:45:24.357Z,9.13
2017-06-16T12:47:58.444Z,5.70
2017-06-16T12:50:32.616Z,4.93
2017-06-16T12:53:06.695Z,6.37
2017-06-16T12:55:40.813Z,5.70
2017-06-16T12:58:15.162Z,5.90
2017-06-16T13:00:49.260Z,5.10
2017-06-16T13:03:23.503Z,5.10
2017-06-16T13:05:57.719Z,4.93
2017-06-16T13:11:47.230Z,4.47
2017-06-16T13:14:21.433Z,4.63
2017-06-16T13:16:56.460Z,5.27
2017-06-16T13:19:30.741Z,4.63
2017-06-16T13:28:34.451Z,4.57
2017-06-16T13:31:08.635Z,4.77
2017-06-16T13:33:42.722Z,4.70
2017-06-16T13:36:16.975Z,4.47
2017-06-16T13:38:51.084Z,4.97
2017-06-16T13:41:25.375Z,4.97
2017-06-16T13:43:59.689Z,6.50
2017-06-16T13:49:48.315Z,10.37
2017-06-16T13:52:22.603Z,3.80
2017-06-16T13:54:56.838Z,4.23
2017-06-16T13:57:30.946Z,4.37
2017-06-16T14:00:05.195Z,4.53
2017-06-16T14:02:39.296Z,4.30
2017-06-16T14:08:28.655Z,6.23
2017-06-16T14:11:04.639Z,4.63
2017-06-16T14:13:38.804Z,4.47
2017-06-16T14:16:13.128Z,4.97
2017-06-16T14:18:47.220Z,3.90
2017-06-16T14:21:21.306Z,3.80
2017-06-16T14:23:55.459Z,4.37
2017-06-16T14:26:29.624Z,3.87
2017-06-16T14:29:03.659Z,5.80
2017-06-16T14:31:37.678Z,3.83
2017-06-16T14:40:42.451Z,4.47
2017-06-16T14:43:16.786Z,3.93
2017-06-16T14:45:50.912Z,3.67
2017-06-16T14:48:25.325Z,5.33
2017-06-16T14:50:59.451Z,6.30
2017-06-16T14:53:33.477Z,3.60
2017-06-16T14:56:07.677Z,4.50
2017-06-16T14:58:41.776Z,4.90
2017-06-16T15:01:15.966Z,4.23
2017-06-16T15:03:50.037Z,5.10
2017-06-16T15:09:39.279Z,4.00
2017-06-16T15:12:13.484Z,3.87
2017-06-16T15:14:47.611Z,4.10
2017-06-16T15:17:21.675Z,4.23
2017-06-16T15:19:56.376Z,7.63
2017-06-16T15:25:45.091Z,3.50
2017-06-16T15:28:19.092Z,5.07
2017-06-16T15:30:53.040Z,3.57
2017-06-16T15:33:28.371Z,4.07
2017-06-16T15:36:02.431Z,3.60
2017-06-16T15:38:36.768Z,3.50
2017-06-16T15:41:11.042Z,4.73
2017-06-16T15:43:45.074Z,3.57
2017-06-16T15:46:19.247Z,4.00
2017-06-16T15:48:53.478Z,3.30
2017-06-16T15:57:57.204Z,6.10
2017-06-16T16:00:31.775Z,3.30
2017-06-16T16:03:06.461Z,4.60
2017-06-16T16:05:40.768Z,5.70
2017-06-16T16:08:14.992Z,3.40
2017-06-16T16:10:49.001Z,6.70
2017-06-16T16:13:23.220Z,3.07
2017-06-16T16:15:57.436Z,3.40
2017-06-16T16:18:31.637Z,3.63
2017-06-16T16:21:05.855Z,4.20
2017-06-16T16:23:39.888Z,3.50
2017-06-16T16:32:44.825Z,2.80
2017-06-16T16:35:19.225Z,3.57
2017-06-16T16:37:53.361Z,2.90
2017-06-16T16:40:27.624Z,3.07
2017-06-16T16:43:01.760Z,5.67
2017-06-16T16:45:35.803Z,4.50
2017-06-16T16:48:10.129Z,3.50
2017-06-16T16:50:44.152Z,3.80
2017-06-16T16:53:18.338Z,3.43
2017-06-16T16:55:52.638Z,3.03
2017-06-16T17:31:03.169Z,5.70
2017-06-16T17:40:08.040Z,5.50
2017-06-16T17:42:42.229Z,10.40
2017-06-16T17:45:16.509Z,6.53
2017-06-16T17:51:05.604Z,6.30
2017-06-16T17:53:39.799Z,7.20
2017-06-16T17:56:13.925Z,7.50
2017-06-16T17:58:48.016Z,7.47
2017-06-16T18:01:22.265Z,7.10
2017-06-16T18:03:56.377Z,8.03
2017-06-16T18:06:30.547Z,7.27
2017-06-16T18:09:04.632Z,6.67
2017-06-16T18:14:53.602Z,7.07
2017-06-16T18:17:27.780Z,7.40
2017-06-16T18:20:01.929Z,7.27
2017-06-16T18:22:36.005Z,7.43
2017-06-16T18:25:10.121Z,7.57
2017-06-16T18:30:59.473Z,7.83
2017-06-16T18:33:33.652Z,7.83
2017-06-16T18:36:07.809Z,7.57
2017-06-16T18:38:41.992Z,11.07
2017-06-16T18:41:16.081Z,8.13
2017-06-16T18:43:50.349Z,7.47
2017-06-16T18:46:24.528Z,9.23
2017-06-16T18:52:14.032Z,9.30
2017-06-16T18:54:48.237Z,8.97
2017-06-16T18:57:22.529Z,9.17
2017-06-16T18:59:56.725Z,7.90
2017-06-16T19:02:30.909Z,7.80
2017-06-16T19:11:34.937Z,8.20
2017-06-16T19:14:09.080Z,8.67
2017-06-16T19:16:43.357Z,8.17
2017-06-16T19:19:17.505Z,8.10
2017-06-16T19:21:51.792Z,9.13
2017-06-16T19:24:25.973Z,8.00
2017-06-16T19:27:00.095Z,8.03
2017-06-16T19:29:34.418Z,7.97
2017-06-16T19:35:23.233Z,9.03
2017-06-16T19:37:57.238Z,8.27
2017-06-16T19:40:31.281Z,8.20
2017-06-16T19:43:05.473Z,8.20
2017-06-16T19:45:39.673Z,9.20
2017-06-16T19:48:13.730Z,8.20
2017-06-16T19:50:47.781Z,7.47
2017-06-16T19:53:21.963Z,7.30
2017-06-16T19:55:56.046Z,7.77
2017-06-16T19:58:30.203Z,7.90
2017-06-16T20:01:04.257Z,7.67
2017-06-16T20:03:38.536Z,7.83
2017-06-16T20:09:27.419Z,8.60
2017-06-16T20:12:01.633Z,8.40
2017-06-16T20:14:35.700Z,7.90
2017-06-16T20:17:09.785Z,7.63
2017-06-16T20:19:43.973Z,8.87
2017-06-16T20:25:33.140Z,8.57
2017-06-16T20:31:21.941Z,8.10
2017-06-16T20:33:56.024Z,11.63
2017-06-16T20:36:30.308Z,10.30
2017-06-16T20:39:04.581Z,7.90
2017-06-16T20:41:38.627Z,7.97
2017-06-16T20:44:12.968Z,8.40
2017-06-16T20:46:47.245Z,8.10
2017-06-16T20:49:21.423Z,8.40
2017-06-16T20:51:55.596Z,8.20
2017-06-16T20:54:29.801Z,8.63
2017-06-16T20:57:04.035Z,8.63
2017-06-16T21:02:53.505Z,8.53
2017-06-16T21:05:27.797Z,8.33
2017-06-16T21:11:16.892Z,7.80
2017-06-16T21:13:51.008Z,8.90
2017-06-16T21:16:25.299Z,8.50
2017-06-16T21:18:59.541Z,7.17
2017-06-16T21:21:33.880Z,8.70
2017-06-16T21:24:08.223Z,8.40
2017-06-16T21:26:47.855Z,9.10
2017-06-16T21:29:22.481Z,8.20
2017-06-16T21:31:56.964Z,8.20
2017-06-16T21:34:31.677Z,9.60
2017-06-16T21:40:22.142Z,7.60
2017-06-16T21:42:56.349Z,9.50
2017-06-16T21:45:30.694Z,9.23
2017-06-16T21:51:20.023Z,8.40
2017-06-16T21:53:54.300Z,8.80
2017-06-16T21:56:28.761Z,8.03
2017-06-16T21:59:03.046Z,10.53
2017-06-16T22:01:37.142Z,9.23
2017-06-16T22:04:11.234Z,8.23
2017-06-16T22:06:45.327Z,12.60
2017-06-16T22:09:19.419Z,12.63
2017-06-16T22:11:53.548Z,12.87
2017-06-16T22:14:27.726Z,9.57
2017-06-16T22:20:17.198Z,9.73
2017-06-16T22:22:51.298Z,9.40
2017-06-16T22:25:25.415Z,11.10
2017-06-16T22:31:18.637Z,9.40
2017-06-16T22:33:52.875Z,8.17
2017-06-16T22:36:27.136Z,10.67
2017-06-16T22:39:01.328Z,9.10
2017-06-16T22:41:35.528Z,8.87
2017-06-16T22:44:09.984Z,14.70
2017-06-16T22:46:44.088Z,12.50
2017-06-16T22:49:18.357Z,10.30
2017-06-16T22:51:52.558Z,9.47
2017-06-16T22:54:26.868Z,7.37
2017-06-16T22:57:00.985Z,13.00
2017-06-16T22:59:35.213Z,17.20
2017-06-16T23:02:09.361Z,7.93
2017-06-16T23:11:13.431Z,9.30
2017-06-16T23:13:47.501Z,9.87
2017-06-16T23:16:21.850Z,9.60
2017-06-16T23:18:55.966Z,7.53
2017-06-16T23:21:31.456Z,12.20
2017-06-16T23:24:05.534Z,7.17
2017-06-16T23:26:39.760Z,7.20
2017-06-16T23:29:14.177Z,7.23
2017-06-16T23:31:48.190Z,7.20
2017-06-16T23:34:22.439Z,7.43
2017-06-16T23:36:56.485Z,7.53
2017-06-16T23:39:30.560Z,7.50
2017-06-16T23:42:04.637Z,9.30
2017-06-16T23:44:39.010Z,8.03
2017-06-16T23:47:13.200Z,11.30
2017-06-16T23:49:47.228Z,9.00
2017-06-16T23:52:21.384Z,11.57
2017-06-16T23:54:55.482Z,8.00
2017-06-16T23:57:29.521Z,7.80
